createdAt,value
2022-09-30T00:00:36.876Z,8.35
2022-09-30T00:03:39.772Z,8.25
2022-09-30T00:06:42.778Z,8.20
2022-09-30T00:09:48.103Z,8.20
2022-09-30T00:12:52.493Z,7.50
2022-09-30T00:15:55.374Z,7.85
2022-09-30T00:18:58.756Z,7.93
2022-09-30T00:22:01.626Z,8.20
2022-09-30T00:25:04.783Z,8.60
2022-09-30T00:28:08.112Z,8.70
2022-09-30T00:31:16.092Z,8.18
2022-09-30T00:34:19.729Z,8.45
2022-09-30T00:37:22.394Z,9.07
2022-09-30T00:40:25.162Z,8.88
2022-09-30T00:43:43.221Z,8.33
2022-09-30T00:46:45.983Z,8.73
2022-09-30T00:49:48.913Z,5.68
2022-09-30T00:53:12.398Z,8.68
2022-09-30T00:56:21.527Z,7.72
2022-09-30T00:59:31.107Z,8.23
2022-09-30T01:02:34.075Z,7.95
2022-09-30T01:05:37.759Z,8.73
2022-09-30T01:08:40.624Z,7.37
2022-09-30T01:11:43.572Z,7.05
2022-09-30T01:14:47.503Z,7.13
2022-09-30T01:18:01.180Z,7.45
2022-09-30T01:21:10.961Z,6.72
2022-09-30T01:24:41.488Z,7.05
2022-09-30T01:27:50.066Z,5.97
2022-09-30T01:31:09.648Z,6.20
2022-09-30T01:34:50.378Z,5.85
2022-09-30T01:37:53.150Z,6.82
2022-09-30T01:41:13.616Z,7.62
2022-09-30T01:44:32.709Z,7.90
2022-09-30T01:47:43.780Z,8.13
2022-09-30T01:50:57.227Z,8.43
2022-09-30T01:54:05.353Z,11.25
2022-09-30T01:57:33.760Z,10.70
2022-09-30T02:00:39.454Z,12.20
2022-09-30T02:03:53.283Z,11.13
2022-09-30T02:06:58.820Z,11.60
2022-09-30T02:10:08.039Z,11.23
2022-09-30T02:13:18.169Z,11.75
2022-09-30T02:16:25.029Z,11.10
2022-09-30T02:19:28.251Z,11.93
2022-09-30T02:22:44.824Z,11.40
2022-09-30T02:25:51.583Z,9.50
2022-09-30T02:28:59.256Z,8.55
2022-09-30T02:32:14.629Z,8.90
2022-09-30T02:35:29.436Z,8.80
2022-09-30T02:38:37.202Z,8.85
2022-09-30T02:41:45.644Z,10.20
2022-09-30T02:44:49.923Z,9.75
2022-09-30T02:48:05.842Z,8.88
2022-09-30T02:51:15.336Z,9.50
2022-09-30T02:54:30.151Z,8.32
2022-09-30T02:57:54.363Z,6.35
2022-09-30T03:00:57.585Z,7.82
2022-09-30T03:04:04.139Z,7.55
2022-09-30T03:07:07.525Z,6.93
2022-09-30T03:10:15.180Z,7.20
2022-09-30T03:13:20.774Z,7.20
2022-09-30T03:16:39.721Z,6.85
2022-09-30T03:19:51.950Z,7.28
2022-09-30T03:23:00.278Z,7.90
2022-09-30T03:26:24.690Z,9.30
2022-09-30T03:29:47.681Z,9.63
2022-09-30T03:33:03.540Z,7.65
2022-09-30T03:36:19.032Z,6.53
2022-09-30T03:39:29.856Z,6.47
2022-09-30T03:42:38.670Z,6.65
2022-09-30T03:45:51.330Z,6.30
2022-09-30T03:48:56.555Z,6.15
2022-09-30T03:52:00.429Z,5.70
2022-09-30T03:55:05.744Z,5.50
2022-09-30T03:58:09.269Z,5.93
2022-09-30T04:01:21.517Z,6.50
2022-09-30T04:04:24.418Z,6.72
2022-09-30T04:07:26.905Z,7.07
2022-09-30T04:10:29.698Z,9.63
2022-09-30T04:13:32.301Z,7.97
2022-09-30T04:16:35.407Z,8.00
2022-09-30T04:19:40.307Z,7.97
2022-09-30T04:22:43.354Z,6.65
2022-09-30T04:25:52.980Z,12.37
2022-09-30T04:28:58.640Z,8.15
2022-09-30T04:32:01.392Z,10.55
2022-09-30T04:35:04.383Z,11.05
2022-09-30T04:38:07.492Z,8.30
2022-09-30T04:41:16.326Z,10.97
2022-09-30T04:44:18.947Z,9.30
2022-09-30T04:47:21.713Z,8.43
2022-09-30T04:50:24.342Z,7.47
2022-09-30T04:53:27.356Z,11.95
2022-09-30T04:56:29.973Z,12.27
2022-09-30T04:59:33.820Z,10.50
2022-09-30T05:02:36.440Z,16.35
2022-09-30T05:05:39.186Z,14.85
2022-09-30T05:08:46.427Z,17.40
2022-09-30T05:11:49.507Z,12.00
2022-09-30T05:14:51.942Z,11.88
2022-09-30T05:17:54.720Z,13.43
2022-09-30T05:20:58.304Z,8.57
2022-09-30T05:24:02.038Z,10.32
2022-09-30T05:27:04.782Z,10.97
2022-09-30T05:30:08.256Z,8.80
2022-09-30T05:33:11.457Z,8.80
2022-09-30T05:36:15.785Z,9.05
2022-09-30T05:39:18.372Z,8.57
2022-09-30T05:42:21.265Z,8.87
2022-09-30T05:45:24.343Z,8.68
2022-09-30T05:48:27.968Z,9.52
2022-09-30T05:51:31.149Z,9.02
2022-09-30T05:54:33.998Z,8.55
2022-09-30T05:57:36.559Z,10.00
2022-09-30T06:00:42.091Z,9.00
2022-09-30T06:03:46.488Z,8.43
2022-09-30T06:06:48.935Z,8.30
2022-09-30T06:09:51.820Z,7.68
2022-09-30T06:12:54.311Z,7.43
2022-09-30T06:16:01.561Z,7.40
2022-09-30T06:19:04.154Z,8.13
2022-09-30T06:22:08.944Z,7.85
2022-09-30T06:25:11.589Z,7.62
2022-09-30T06:28:14.767Z,8.37
2022-09-30T06:31:17.408Z,8.00
2022-09-30T06:34:20.386Z,8.20
2022-09-30T06:37:23.505Z,6.72
2022-09-30T06:40:26.415Z,6.60
2022-09-30T06:43:29.123Z,6.40
2022-09-30T06:46:31.941Z,5.65
2022-09-30T06:49:47.629Z,5.22
2022-09-30T06:52:52.322Z,5.78
2022-09-30T06:55:58.234Z,5.40
2022-09-30T06:59:01.714Z,5.13
2022-09-30T07:02:04.902Z,4.62
2022-09-30T07:05:08.195Z,5.47
2022-09-30T07:08:10.967Z,5.03
2022-09-30T07:11:17.032Z,5.05
2022-09-30T07:14:19.542Z,5.17
2022-09-30T07:17:22.619Z,5.10
2022-09-30T07:20:25.458Z,4.65
2022-09-30T07:23:28.311Z,4.45
2022-09-30T07:26:33.797Z,5.00
2022-09-30T07:30:04.023Z,4.90
2022-09-30T07:32:59.299Z,4.85
2022-09-30T07:36:07.943Z,4.37
2022-09-30T07:39:11.044Z,3.30
2022-09-30T07:42:19.028Z,3.80
2022-09-30T07:45:25.379Z,2.47
2022-09-30T07:48:43.773Z,3.60
2022-09-30T07:51:46.257Z,4.15
2022-09-30T07:54:50.710Z,3.25
2022-09-30T07:57:53.563Z,3.35
2022-09-30T08:00:56.361Z,2.73
2022-09-30T08:04:03.342Z,2.55
2022-09-30T08:07:06.001Z,1.70
2022-09-30T08:10:09.374Z,2.20
2022-09-30T08:13:16.636Z,2.10
2022-09-30T08:16:19.977Z,2.27
2022-09-30T08:19:24.459Z,2.10
2022-09-30T08:22:28.219Z,2.25
2022-09-30T08:25:31.778Z,2.50
2022-09-30T08:28:35.018Z,2.20
2022-09-30T08:31:37.543Z,2.47
2022-09-30T08:34:40.327Z,2.33
2022-09-30T08:37:42.867Z,2.40
2022-09-30T08:41:05.381Z,2.42
2022-09-30T08:44:46.141Z,2.35
2022-09-30T08:48:05.424Z,2.80
2022-09-30T08:51:30.934Z,3.90
2022-09-30T08:54:39.891Z,4.45
2022-09-30T08:57:47.491Z,4.70
2022-09-30T09:00:55.921Z,5.90
2022-09-30T09:03:59.444Z,7.20
2022-09-30T09:07:13.914Z,6.70
2022-09-30T09:10:41.332Z,7.20
2022-09-30T09:14:05.897Z,7.70
2022-09-30T09:17:20.086Z,7.60
2022-09-30T09:20:24.000Z,8.70
2022-09-30T09:23:28.520Z,10.70
2022-09-30T09:26:36.229Z,9.90
2022-09-30T09:30:01.898Z,10.25
2022-09-30T09:33:22.965Z,11.65
2022-09-30T09:36:56.774Z,11.17
2022-09-30T09:40:14.526Z,13.18
2022-09-30T09:43:56.350Z,14.57
2022-09-30T09:47:05.363Z,12.75
2022-09-30T09:50:17.358Z,12.07
2022-09-30T09:53:36.638Z,15.77
2022-09-30T09:56:39.216Z,10.82
2022-09-30T10:00:34.116Z,10.25
2022-09-30T10:03:37.525Z,10.05
2022-09-30T10:06:47.989Z,11.70
2022-09-30T10:10:06.992Z,9.53
2022-09-30T10:13:17.842Z,10.05
2022-09-30T10:16:37.700Z,14.98
2022-09-30T10:19:41.052Z,8.13
2022-09-30T10:22:43.892Z,9.48
2022-09-30T10:26:03.687Z,7.13
2022-09-30T10:29:28.445Z,6.47
2022-09-30T10:32:31.861Z,6.05
2022-09-30T10:35:34.637Z,9.20
2022-09-30T10:41:46.193Z,10.80
2022-09-30T10:44:51.491Z,7.03
2022-09-30T10:47:55.777Z,6.37
2022-09-30T10:50:58.303Z,4.97
2022-09-30T10:54:01.274Z,4.87
2022-09-30T10:57:04.141Z,4.53
2022-09-30T11:00:15.015Z,4.35
2022-09-30T11:03:21.418Z,3.70
2022-09-30T11:06:25.100Z,3.10
2022-09-30T11:09:40.883Z,3.40
2022-09-30T11:13:28.106Z,4.10
2022-09-30T11:16:40.099Z,2.97
2022-09-30T11:19:50.121Z,3.90
2022-09-30T11:23:00.292Z,2.60
2022-09-30T11:26:08.232Z,3.15
2022-09-30T11:29:52.582Z,5.73
2022-09-30T11:33:22.649Z,4.00
2022-09-30T11:37:16.692Z,3.50
2022-09-30T11:40:41.497Z,2.72
2022-09-30T11:44:19.563Z,2.87
2022-09-30T11:47:59.935Z,2.87
2022-09-30T11:51:26.870Z,2.37
2022-09-30T11:55:11.759Z,1.90
2022-09-30T12:01:46.471Z,2.17
2022-09-30T12:04:51.240Z,2.03
2022-09-30T12:08:03.316Z,2.67
2022-09-30T12:11:18.052Z,2.00
2022-09-30T12:14:28.978Z,1.70
2022-09-30T12:17:37.742Z,2.50
2022-09-30T12:20:50.345Z,4.20
2022-09-30T12:24:24.717Z,3.90
2022-09-30T12:27:35.933Z,2.78
2022-09-30T12:30:41.847Z,4.72
2022-09-30T12:33:57.274Z,3.20
2022-09-30T12:37:20.686Z,3.53
2022-09-30T12:40:52.380Z,2.90
2022-09-30T12:43:58.308Z,2.12
2022-09-30T12:47:24.980Z,2.37
2022-09-30T12:50:29.915Z,2.22
2022-09-30T12:53:41.364Z,3.03
2022-09-30T12:56:46.992Z,2.37
2022-09-30T12:59:55.692Z,2.00
2022-09-30T13:03:06.850Z,1.75
2022-09-30T13:06:09.466Z,2.80
2022-09-30T13:09:12.143Z,1.90
2022-09-30T13:12:26.271Z,3.10
2022-09-30T13:15:29.075Z,3.85
2022-09-30T13:18:31.613Z,5.10
2022-09-30T13:21:34.628Z,2.70
2022-09-30T13:25:03.740Z,2.57
2022-09-30T13:28:29.876Z,1.45
2022-09-30T13:31:52.484Z,1.60
2022-09-30T13:34:56.918Z,1.60
2022-09-30T13:38:14.480Z,1.40
2022-09-30T13:41:21.767Z,10.90
2022-09-30T13:44:46.276Z,3.17
2022-09-30T13:48:08.107Z,1.12
2022-09-30T13:51:14.814Z,1.60
2022-09-30T13:54:29.055Z,5.37
2022-09-30T13:57:40.346Z,2.80
2022-09-30T14:01:21.890Z,1.92
2022-09-30T14:04:45.924Z,0.90
2022-09-30T14:08:31.257Z,0.80
2022-09-30T14:11:34.059Z,2.83
2022-09-30T14:15:07.625Z,3.73
2022-09-30T14:18:29.594Z,3.40
2022-09-30T14:21:54.464Z,7.62
2022-09-30T14:24:57.874Z,4.70
2022-09-30T14:28:04.594Z,6.37
2022-09-30T14:31:13.915Z,3.23
2022-09-30T14:34:18.059Z,0.95
2022-09-30T14:37:28.160Z,2.28
2022-09-30T14:40:40.256Z,9.13
2022-09-30T14:43:44.568Z,4.72
2022-09-30T14:46:48.741Z,3.00
2022-09-30T14:49:51.815Z,3.00
2022-09-30T14:52:58.675Z,2.33
2022-09-30T14:56:04.932Z,3.10
2022-09-30T14:59:23.808Z,4.37
2022-09-30T15:02:26.847Z,3.90
2022-09-30T15:05:29.472Z,3.78
2022-09-30T15:08:32.574Z,3.05
2022-09-30T15:11:39.603Z,1.80
2022-09-30T15:15:00.655Z,3.25
2022-09-30T15:18:22.968Z,2.87
2022-09-30T15:21:28.636Z,2.28
2022-09-30T15:24:32.647Z,3.92
2022-09-30T15:27:37.024Z,8.23
2022-09-30T15:30:43.144Z,5.95
2022-09-30T15:33:46.129Z,3.57
2022-09-30T15:36:57.039Z,4.15
2022-09-30T15:40:20.487Z,7.20
2022-09-30T15:43:39.702Z,12.30
2022-09-30T15:47:03.403Z,20.65
2022-09-30T15:50:06.328Z,10.40
2022-09-30T15:53:24.935Z,9.20
2022-09-30T15:56:37.367Z,11.68
2022-09-30T16:00:07.477Z,5.93
2022-09-30T16:03:30.057Z,3.85
2022-09-30T16:06:36.571Z,3.70
2022-09-30T16:09:41.053Z,3.55
2022-09-30T16:12:49.349Z,3.50
2022-09-30T16:15:57.600Z,3.30
2022-09-30T16:19:01.301Z,4.10
2022-09-30T16:22:04.180Z,4.10
2022-09-30T16:25:15.754Z,5.70
2022-09-30T16:28:18.692Z,7.40
2022-09-30T16:31:21.830Z,6.57
2022-09-30T16:34:26.800Z,5.28
2022-09-30T16:37:29.516Z,4.50
2022-09-30T16:40:35.774Z,4.62
2022-09-30T16:43:39.140Z,4.78
2022-09-30T16:46:42.262Z,6.10
2022-09-30T16:49:48.939Z,8.57
2022-09-30T16:52:51.840Z,8.20
2022-09-30T16:55:54.370Z,7.15
2022-09-30T16:58:57.432Z,7.00
2022-09-30T17:02:01.164Z,6.93
2022-09-30T17:05:04.429Z,8.80
2022-09-30T17:08:09.776Z,8.37
2022-09-30T17:11:12.608Z,8.82
2022-09-30T17:14:17.698Z,7.95
2022-09-30T17:17:20.593Z,6.12
2022-09-30T17:20:24.308Z,6.32
2022-09-30T17:23:28.423Z,5.27
2022-09-30T17:26:31.221Z,5.00
2022-09-30T17:29:34.687Z,4.97
2022-09-30T17:32:39.928Z,3.62
2022-09-30T17:35:42.820Z,2.40
2022-09-30T17:38:45.427Z,1.90
2022-09-30T17:42:06.868Z,1.50
2022-09-30T17:45:09.827Z,1.40
2022-09-30T17:48:14.617Z,1.60
2022-09-30T17:51:18.207Z,1.25
2022-09-30T17:54:21.514Z,1.33
2022-09-30T17:57:24.239Z,1.35
2022-09-30T18:00:28.121Z,1.35
2022-09-30T18:03:32.433Z,1.75
2022-09-30T18:06:35.837Z,2.22
2022-09-30T18:09:39.252Z,2.60
2022-09-30T18:12:41.969Z,2.33
2022-09-30T18:15:45.725Z,2.35
2022-09-30T18:18:48.231Z,2.75
2022-09-30T18:21:51.068Z,2.90
2022-09-30T18:25:12.578Z,3.80
2022-09-30T18:28:16.274Z,4.28
2022-09-30T18:31:29.128Z,6.20
2022-09-30T18:34:32.569Z,5.43
2022-09-30T18:37:37.115Z,4.93
2022-09-30T18:40:43.455Z,4.80
2022-09-30T18:43:46.326Z,4.60
2022-09-30T18:46:49.085Z,4.37
2022-09-30T18:49:51.663Z,4.18
2022-09-30T18:52:54.748Z,3.90
2022-09-30T18:56:01.298Z,4.47
2022-09-30T18:59:04.971Z,4.80
2022-09-30T19:02:07.940Z,4.68
2022-09-30T19:05:13.176Z,5.20
2022-09-30T19:08:15.835Z,5.30
2022-09-30T19:11:19.114Z,4.30
2022-09-30T19:14:21.925Z,5.07
2022-09-30T19:17:26.388Z,4.87
2022-09-30T19:20:36.717Z,4.62
2022-09-30T19:23:42.642Z,4.70
2022-09-30T19:26:46.830Z,5.40
2022-09-30T19:29:50.197Z,5.30
2022-09-30T19:33:01.478Z,5.50
2022-09-30T19:36:14.792Z,5.72
2022-09-30T19:39:19.420Z,5.68
2022-09-30T19:42:23.443Z,5.40
2022-09-30T19:45:27.266Z,4.70
2022-09-30T19:48:33.060Z,5.40
2022-09-30T19:51:38.530Z,5.00
2022-09-30T19:54:41.983Z,4.78
2022-09-30T19:57:44.669Z,4.77
2022-09-30T20:00:54.514Z,4.60
2022-09-30T20:03:59.431Z,6.85
2022-09-30T20:07:02.325Z,9.05
2022-09-30T20:10:06.357Z,9.88
2022-09-30T20:13:09.003Z,10.43
2022-09-30T20:16:13.929Z,11.73
2022-09-30T20:19:20.547Z,12.70
2022-09-30T20:22:27.322Z,12.48
2022-09-30T20:25:32.159Z,12.68
2022-09-30T20:28:35.447Z,11.87
2022-09-30T20:31:41.128Z,11.10
2022-09-30T20:34:45.473Z,10.50
2022-09-30T20:37:48.055Z,11.15
2022-09-30T20:40:58.661Z,10.50
2022-09-30T20:44:13.773Z,9.87
2022-09-30T20:47:17.096Z,9.90
2022-09-30T20:50:35.086Z,10.23
2022-09-30T20:53:39.792Z,9.65
2022-09-30T20:57:05.790Z,8.70
2022-09-30T21:00:05.567Z,9.07
2022-09-30T21:03:10.181Z,9.73
2022-09-30T21:06:13.147Z,7.78
2022-09-30T21:09:15.719Z,7.97
2022-09-30T21:12:24.235Z,8.90
2022-09-30T21:15:31.342Z,7.20
2022-09-30T21:18:34.581Z,6.40
2022-09-30T21:21:37.233Z,6.40
2022-09-30T21:24:40.020Z,6.10
2022-09-30T21:27:46.386Z,6.40
2022-09-30T21:30:49.379Z,6.77
2022-09-30T21:33:53.376Z,5.72
2022-09-30T21:36:56.219Z,5.72
2022-09-30T21:39:58.786Z,4.95
2022-09-30T21:43:01.677Z,4.28
2022-09-30T21:46:06.689Z,4.53
2022-09-30T21:49:23.813Z,4.22
2022-09-30T21:52:30.676Z,4.12
2022-09-30T21:55:35.461Z,4.15
2022-09-30T21:58:38.421Z,4.43
2022-09-30T22:01:42.102Z,3.77
2022-09-30T22:04:45.114Z,3.50
2022-09-30T22:07:48.139Z,3.80
2022-09-30T22:10:54.059Z,4.10
2022-09-30T22:13:58.170Z,4.53
2022-09-30T22:17:01.032Z,4.07
2022-09-30T22:20:03.902Z,5.12
2022-09-30T22:23:06.790Z,5.00
2022-09-30T22:26:11.665Z,4.75
2022-09-30T22:29:16.450Z,4.37
2022-09-30T22:32:18.991Z,4.93
2022-09-30T22:35:40.364Z,4.70
2022-09-30T22:38:43.517Z,4.75
2022-09-30T22:41:46.722Z,4.80
2022-09-30T22:44:49.724Z,5.35
2022-09-30T22:47:53.708Z,5.13
2022-09-30T22:50:57.357Z,4.93
2022-09-30T22:54:01.322Z,5.10
2022-09-30T22:57:05.621Z,5.65
2022-09-30T23:00:09.259Z,5.70
2022-09-30T23:03:11.919Z,4.67
2022-09-30T23:06:14.671Z,4.93
2022-09-30T23:09:17.721Z,5.15
2022-09-30T23:12:21.531Z,4.90
2022-09-30T23:15:23.968Z,4.95
2022-09-30T23:18:27.867Z,5.17
2022-09-30T23:21:32.165Z,5.18
2022-09-30T23:24:35.396Z,4.72
2022-09-30T23:27:38.394Z,4.87
2022-09-30T23:30:41.341Z,5.18
2022-09-30T23:33:49.653Z,5.30
2022-09-30T23:36:52.441Z,5.30
2022-09-30T23:39:55.073Z,5.25
2022-09-30T23:42:57.969Z,4.43
2022-09-30T23:46:01.585Z,4.60
2022-09-30T23:49:04.915Z,4.73
2022-09-30T23:52:12.925Z,4.95
2022-09-30T23:55:16.832Z,5.75
2022-09-30T23:58:19.245Z,5.78
